createdAt,value
2022-08-04T00:00:13.439Z,54.92
2022-08-04T00:02:55.714Z,54.90
2022-08-04T00:05:36.938Z,55.20
2022-08-04T00:08:14.272Z,55.55
2022-08-04T00:10:49.861Z,54.49
2022-08-04T00:13:23.340Z,54.43
2022-08-04T00:15:54.271Z,54.66
2022-08-04T00:18:27.653Z,54.91
2022-08-04T00:21:01.175Z,54.45
2022-08-04T00:24:11.118Z,54.30
2022-08-04T00:26:21.980Z,55.12
2022-08-04T00:28:50.800Z,57.21
2022-08-04T00:31:20.630Z,58.31
2022-08-04T00:34:12.077Z,58.00
2022-08-04T00:36:44.671Z,58.94
2022-08-04T00:39:15.893Z,58.63
2022-08-04T00:41:57.077Z,59.20
2022-08-04T00:44:39.157Z,59.10
2022-08-04T00:47:20.416Z,58.66
2022-08-04T00:50:08.573Z,58.97
2022-08-04T00:53:03.654Z,58.65
2022-08-04T00:55:54.732Z,58.18
2022-08-04T00:58:30.719Z,57.51
2022-08-04T01:01:02.715Z,56.75
2022-08-04T01:03:49.447Z,55.88
2022-08-04T01:06:36.532Z,55.84
2022-08-04T01:09:25.867Z,55.53
2022-08-04T01:12:20.128Z,55.50
2022-08-04T01:15:04.455Z,55.67
2022-08-04T01:17:44.710Z,55.45
2022-08-04T01:20:18.481Z,55.53
2022-08-04T01:23:25.081Z,55.87
2022-08-04T01:26:42.715Z,55.27
2022-08-04T01:29:15.823Z,55.59
2022-08-04T01:31:55.063Z,55.57
2022-08-04T01:34:25.032Z,55.86
2022-08-04T01:37:00.846Z,55.57
2022-08-04T01:39:41.644Z,55.73
2022-08-04T01:42:10.933Z,55.90
2022-08-04T01:44:42.641Z,55.92
2022-08-04T01:47:11.246Z,56.09
2022-08-04T01:49:41.189Z,56.26
2022-08-04T01:52:11.121Z,56.70
2022-08-04T01:54:43.151Z,56.51
2022-08-04T01:57:38.851Z,59.18
2022-08-04T02:00:02.151Z,60.12
2022-08-04T02:02:32.387Z,60.66
2022-08-04T02:05:00.492Z,60.32
2022-08-04T02:07:48.858Z,59.67
2022-08-04T02:10:28.183Z,59.55
2022-08-04T02:13:10.640Z,59.29
2022-08-04T02:15:54.519Z,59.30
2022-08-04T02:18:26.027Z,59.42
2022-08-04T02:20:59.238Z,60.85
2022-08-04T02:23:32.693Z,61.20
2022-08-04T02:26:03.451Z,61.37
2022-08-04T02:28:36.511Z,61.66
2022-08-04T02:31:19.709Z,61.63
2022-08-04T02:33:57.153Z,60.85
2022-08-04T02:36:31.595Z,61.02
2022-08-04T02:39:01.850Z,60.79
2022-08-04T02:41:31.559Z,60.74
2022-08-04T02:44:01.618Z,61.67
2022-08-04T02:46:32.237Z,61.78
2022-08-04T02:49:03.374Z,61.38
2022-08-04T02:51:35.409Z,60.80
2022-08-04T02:54:08.362Z,60.30
2022-08-04T02:56:40.970Z,59.99
2022-08-04T02:59:11.227Z,59.64
2022-08-04T03:01:56.943Z,61.32
2022-08-04T03:04:47.252Z,62.40
2022-08-04T03:07:47.809Z,62.91
2022-08-04T03:10:26.617Z,63.21
2022-08-04T03:13:29.139Z,62.91
2022-08-04T03:16:30.255Z,62.52
2022-08-04T03:19:27.793Z,62.11
2022-08-04T03:22:25.098Z,61.60
2022-08-04T03:25:34.732Z,60.37
2022-08-04T03:28:31.722Z,59.93
2022-08-04T03:31:20.311Z,60.11
2022-08-04T03:34:04.425Z,60.05
2022-08-04T03:36:59.274Z,60.66
2022-08-04T03:39:57.197Z,60.70
2022-08-04T03:42:58.652Z,61.26
2022-08-04T03:46:07.043Z,60.92
2022-08-04T03:48:54.874Z,61.08
2022-08-04T03:51:56.604Z,60.31
2022-08-04T03:54:45.176Z,60.55
2022-08-04T03:57:35.056Z,60.50
2022-08-04T04:00:10.024Z,61.18
2022-08-04T04:03:28.902Z,60.89
2022-08-04T04:06:41.378Z,60.97
2022-08-04T04:09:52.336Z,60.81
2022-08-04T04:12:36.163Z,60.92
2022-08-04T04:15:25.257Z,61.62
2022-08-04T04:18:17.234Z,62.82
2022-08-04T04:21:26.879Z,62.50
2022-08-04T04:24:35.466Z,61.50
2022-08-04T04:27:14.431Z,62.26
2022-08-04T04:30:04.941Z,62.12
2022-08-04T04:32:49.293Z,62.04
2022-08-04T04:35:32.281Z,63.25
2022-08-04T04:38:30.198Z,62.40
2022-08-04T04:41:07.178Z,62.27
2022-08-04T04:43:55.783Z,62.45
2022-08-04T04:46:36.358Z,62.79
2022-08-04T04:49:15.663Z,65.02
2022-08-04T04:51:45.620Z,64.99
2022-08-04T04:54:24.488Z,63.41
2022-08-04T04:57:14.400Z,64.20
2022-08-04T04:59:48.897Z,63.59
2022-08-04T05:02:36.655Z,63.23
2022-08-04T05:05:43.040Z,63.52
2022-08-04T05:08:43.868Z,63.27
2022-08-04T05:11:57.337Z,63.31
2022-08-04T05:14:41.041Z,64.18
2022-08-04T05:17:18.179Z,64.23
2022-08-04T05:19:54.750Z,64.18
2022-08-04T05:22:30.586Z,63.92
2022-08-04T05:25:04.819Z,64.16
2022-08-04T05:27:41.910Z,64.68
2022-08-04T05:30:11.868Z,64.55
2022-08-04T05:32:49.564Z,64.16
2022-08-04T05:35:38.988Z,64.00
2022-08-04T05:38:21.484Z,63.45
2022-08-04T05:40:52.142Z,63.17
2022-08-04T05:43:21.603Z,62.92
2022-08-04T05:45:54.212Z,62.49
2022-08-04T05:48:22.521Z,61.99
2022-08-04T05:50:58.953Z,62.18
2022-08-04T05:53:29.587Z,61.94
2022-08-04T05:55:59.984Z,61.59
2022-08-04T05:58:30.637Z,61.14
2022-08-04T06:01:00.611Z,61.38
2022-08-04T06:03:31.208Z,61.87
2022-08-04T06:06:02.808Z,60.26
2022-08-04T06:08:31.518Z,59.71
2022-08-04T06:11:05.512Z,60.07
2022-08-04T06:13:51.106Z,59.58
2022-08-04T06:16:28.590Z,59.34
2022-08-04T06:20:03.222Z,59.70
2022-08-04T06:21:53.497Z,58.47
2022-08-04T06:24:25.799Z,57.83
2022-08-04T06:26:56.116Z,58.00
2022-08-04T06:29:29.481Z,58.07
2022-08-04T06:32:30.733Z,59.45
2022-08-04T06:34:48.651Z,59.00
2022-08-04T06:37:24.150Z,58.71
2022-08-04T06:40:13.990Z,59.13
2022-08-04T06:42:59.520Z,59.44
2022-08-04T06:45:34.472Z,60.04
2022-08-04T06:48:04.592Z,59.59
2022-08-04T06:51:30.389Z,58.46
2022-08-04T06:53:23.887Z,59.34
2022-08-04T06:55:52.822Z,57.06
2022-08-04T06:58:22.936Z,56.92
2022-08-04T07:00:52.325Z,56.19
2022-08-04T07:03:21.827Z,56.61
2022-08-04T07:05:55.211Z,56.28
2022-08-04T07:08:29.647Z,56.56
2022-08-04T07:10:59.770Z,56.47
2022-08-04T07:13:29.016Z,54.29
2022-08-04T07:16:00.018Z,53.69
2022-08-04T07:18:28.485Z,52.35
2022-08-04T07:20:56.750Z,52.58
2022-08-04T07:23:26.440Z,53.55
2022-08-04T07:26:10.853Z,52.92
2022-08-04T07:28:42.399Z,52.25
2022-08-04T07:31:33.892Z,51.61
2022-08-04T07:34:16.838Z,51.22
2022-08-04T07:36:53.120Z,49.83
2022-08-04T07:39:27.406Z,50.16
2022-08-04T07:42:01.219Z,50.05
2022-08-04T07:44:31.040Z,49.74
2022-08-04T07:46:59.801Z,49.20
2022-08-04T07:49:56.028Z,49.38
2022-08-04T07:52:17.174Z,49.39
2022-08-04T07:54:45.708Z,48.93
2022-08-04T07:57:19.673Z,49.15
2022-08-04T08:00:03.587Z,49.40
2022-08-04T08:02:40.799Z,48.41
2022-08-04T08:05:10.630Z,48.41
2022-08-04T08:07:51.043Z,48.71
2022-08-04T08:10:23.541Z,47.62
2022-08-04T08:12:54.516Z,47.59
2022-08-04T08:15:23.285Z,48.88
2022-08-04T08:17:59.690Z,48.99
2022-08-04T08:20:32.883Z,48.15
2022-08-04T08:23:02.705Z,47.98
2022-08-04T08:25:32.524Z,48.18
2022-08-04T08:28:04.765Z,48.58
2022-08-04T08:30:34.217Z,47.39
2022-08-04T08:33:05.766Z,46.64
2022-08-04T08:35:53.319Z,47.00
2022-08-04T08:38:35.025Z,47.93
2022-08-04T08:41:24.772Z,47.43
2022-08-04T08:44:19.287Z,47.02
2022-08-04T08:47:12.587Z,46.70
2022-08-04T08:50:05.116Z,46.37
2022-08-04T08:53:02.984Z,46.56
2022-08-04T08:55:43.755Z,46.66
2022-08-04T08:58:33.917Z,45.95
2022-08-04T09:01:11.369Z,45.36
2022-08-04T09:04:28.823Z,45.29
2022-08-04T09:07:14.693Z,45.49
2022-08-04T09:09:55.763Z,45.96
2022-08-04T09:12:29.260Z,44.61
2022-08-04T09:15:10.318Z,44.45
2022-08-04T09:17:47.047Z,44.68
2022-08-04T09:20:26.802Z,43.91
2022-08-04T09:23:07.969Z,43.64
2022-08-04T09:25:42.119Z,44.13
2022-08-04T09:28:43.485Z,42.75
2022-08-04T09:31:14.687Z,42.79
2022-08-04T09:33:52.442Z,42.55
2022-08-04T09:36:33.667Z,42.45
2022-08-04T09:39:10.627Z,42.22
2022-08-04T09:41:48.835Z,40.42
2022-08-04T09:44:48.852Z,39.88
2022-08-04T09:47:25.254Z,39.76
2022-08-04T09:50:24.602Z,39.30
2022-08-04T09:53:00.513Z,39.14
2022-08-04T09:55:54.241Z,38.54
2022-08-04T09:58:40.407Z,38.40
2022-08-04T10:01:12.842Z,37.35
2022-08-04T10:03:46.254Z,36.37
2022-08-04T10:06:37.796Z,35.18
2022-08-04T10:09:20.683Z,32.00
2022-08-04T10:12:00.613Z,30.18
2022-08-04T10:14:39.999Z,27.50
2022-08-04T10:17:43.603Z,26.11
2022-08-04T10:20:33.922Z,25.11
2022-08-04T10:23:24.734Z,25.23
2022-08-04T10:26:07.017Z,25.28
2022-08-04T10:28:44.821Z,26.14
2022-08-04T10:31:20.493Z,27.25
2022-08-04T10:33:54.388Z,27.55
2022-08-04T10:36:28.233Z,27.38
2022-08-04T10:39:04.665Z,27.89
2022-08-04T10:41:39.453Z,29.15
2022-08-04T10:44:24.668Z,30.15
2022-08-04T10:46:56.794Z,30.40
2022-08-04T10:49:32.090Z,30.15
2022-08-04T10:52:06.754Z,29.58
2022-08-04T10:54:48.023Z,29.61
2022-08-04T10:57:24.809Z,28.50
2022-08-04T11:00:03.252Z,27.41
2022-08-04T11:02:40.898Z,27.74
2022-08-04T11:05:25.945Z,26.87
2022-08-04T11:07:59.974Z,26.79
2022-08-04T11:10:35.393Z,26.78
2022-08-04T11:13:29.456Z,26.08
2022-08-04T11:15:59.905Z,24.41
2022-08-04T11:18:35.275Z,22.84
2022-08-04T11:21:12.168Z,22.42
2022-08-04T11:23:48.006Z,22.42
2022-08-04T11:26:25.854Z,22.11
2022-08-04T11:29:03.998Z,23.13
2022-08-04T11:31:34.375Z,23.11
2022-08-04T11:34:07.185Z,22.58
2022-08-04T11:36:40.953Z,22.91
2022-08-04T11:39:13.966Z,22.80
2022-08-04T11:41:49.638Z,23.63
2022-08-04T11:44:24.151Z,23.10
2022-08-04T11:46:55.016Z,23.73
2022-08-04T11:49:30.745Z,25.12
2022-08-04T11:52:01.158Z,25.03
2022-08-04T11:54:29.884Z,23.98
2022-08-04T11:56:59.253Z,23.97
2022-08-04T11:59:30.209Z,24.42
2022-08-04T12:02:20.679Z,25.30
2022-08-04T12:04:57.636Z,24.05
2022-08-04T12:07:41.683Z,24.01
2022-08-04T12:10:41.000Z,22.62
2022-08-04T12:13:21.878Z,22.53
2022-08-04T12:15:58.404Z,22.86
2022-08-04T12:18:35.511Z,23.05
2022-08-04T12:21:12.089Z,24.13
2022-08-04T12:23:45.052Z,23.85
2022-08-04T12:26:21.845Z,24.17
2022-08-04T12:29:12.032Z,24.78
2022-08-04T12:31:46.694Z,24.32
2022-08-04T12:34:19.069Z,23.06
2022-08-04T12:36:56.947Z,23.74
2022-08-04T12:39:28.225Z,24.83
2022-08-04T12:42:03.619Z,23.86
2022-08-04T12:44:40.211Z,23.06
2022-08-04T12:47:28.550Z,23.68
2022-08-04T12:50:04.232Z,22.78
2022-08-04T12:53:01.741Z,23.63
2022-08-04T12:55:30.207Z,23.69
2022-08-04T12:57:59.576Z,23.82
2022-08-04T13:00:39.990Z,24.89
2022-08-04T13:03:12.908Z,25.46
2022-08-04T13:05:42.825Z,24.78
2022-08-04T13:08:13.148Z,23.73
2022-08-04T13:10:43.587Z,24.85
2022-08-04T13:13:18.270Z,24.98
2022-08-04T13:15:58.775Z,25.82
2022-08-04T13:18:32.105Z,25.44
2022-08-04T13:21:19.627Z,25.17
2022-08-04T13:24:10.293Z,25.29
2022-08-04T13:26:53.940Z,25.69
2022-08-04T13:29:59.902Z,25.07
2022-08-04T13:32:22.451Z,24.44
2022-08-04T13:34:54.375Z,25.84
2022-08-04T13:37:27.656Z,24.84
2022-08-04T13:39:58.556Z,25.59
2022-08-04T13:42:28.343Z,24.77
2022-08-04T13:45:01.089Z,25.63
2022-08-04T13:47:33.474Z,26.36
2022-08-04T13:50:12.166Z,27.09
2022-08-04T13:52:41.586Z,26.39
2022-08-04T13:55:18.922Z,26.14
2022-08-04T13:57:51.513Z,25.37
2022-08-04T14:00:29.341Z,26.51
2022-08-04T14:03:23.170Z,25.61
2022-08-04T14:06:26.779Z,25.65
2022-08-04T14:08:56.884Z,26.09
2022-08-04T14:12:06.828Z,26.60
2022-08-04T14:14:25.486Z,26.04
2022-08-04T14:17:02.424Z,25.22
2022-08-04T14:19:49.725Z,26.15
2022-08-04T14:22:34.788Z,25.48
2022-08-04T14:25:09.265Z,25.82
2022-08-04T14:27:46.193Z,25.52
2022-08-04T14:30:26.013Z,25.81
2022-08-04T14:34:02.902Z,25.63
2022-08-04T14:36:03.851Z,26.71
2022-08-04T14:38:52.296Z,26.80
2022-08-04T14:41:26.172Z,26.46
2022-08-04T14:43:56.223Z,26.09
2022-08-04T14:46:36.046Z,25.53
2022-08-04T14:49:09.972Z,25.79
2022-08-04T14:51:43.829Z,26.75
2022-08-04T14:54:18.696Z,26.60
2022-08-04T14:56:57.004Z,25.89
2022-08-04T14:59:30.774Z,26.87
2022-08-04T15:02:01.780Z,27.24
2022-08-04T15:04:33.161Z,27.75
2022-08-04T15:07:06.614Z,27.27
2022-08-04T15:09:36.995Z,26.67
2022-08-04T15:12:07.637Z,26.75
2022-08-04T15:14:38.477Z,27.03
2022-08-04T15:17:12.349Z,26.85
2022-08-04T15:19:56.673Z,27.21
2022-08-04T15:22:26.755Z,27.66
2022-08-04T15:24:56.028Z,27.62
2022-08-04T15:27:27.373Z,27.58
2022-08-04T15:30:01.882Z,26.96
2022-08-04T15:32:33.032Z,26.85
2022-08-04T15:35:06.541Z,27.08
2022-08-04T15:37:44.437Z,28.03
2022-08-04T15:40:15.449Z,27.23
2022-08-04T15:42:48.869Z,27.34
2022-08-04T15:45:23.683Z,27.56
2022-08-04T15:48:32.562Z,28.14
2022-08-04T15:51:14.632Z,28.71
2022-08-04T15:54:24.503Z,29.07
2022-08-04T15:57:02.742Z,28.85
2022-08-04T15:59:57.196Z,29.47
2022-08-04T16:02:46.037Z,29.12
2022-08-04T16:05:39.255Z,30.21
2022-08-04T16:08:15.174Z,30.15
2022-08-04T16:10:49.287Z,29.55
2022-08-04T16:13:25.017Z,30.07
2022-08-04T16:15:54.937Z,30.03
2022-08-04T16:18:41.370Z,29.09
2022-08-04T16:21:20.722Z,30.06
2022-08-04T16:24:15.043Z,28.97
2022-08-04T16:26:54.403Z,28.88
2022-08-04T16:29:31.768Z,29.54
2022-08-04T16:32:15.569Z,28.94
2022-08-04T16:34:54.299Z,29.81
2022-08-04T16:37:25.990Z,29.89
2022-08-04T16:40:34.025Z,30.12
2022-08-04T16:43:07.129Z,30.67
2022-08-04T16:45:48.367Z,30.80
2022-08-04T16:48:17.853Z,30.75
2022-08-04T16:51:07.987Z,31.06
2022-08-04T16:53:53.137Z,30.73
2022-08-04T16:56:33.388Z,31.31
2022-08-04T16:59:08.364Z,31.36
2022-08-04T17:01:38.947Z,31.31
2022-08-04T17:04:07.679Z,31.89
2022-08-04T17:06:38.626Z,31.68
2022-08-04T17:09:10.447Z,32.21
2022-08-04T17:11:38.617Z,32.81
2022-08-04T17:14:06.912Z,33.67
2022-08-04T17:16:39.410Z,33.58
2022-08-04T17:19:24.422Z,33.89
2022-08-04T17:22:04.771Z,34.17
2022-08-04T17:24:35.279Z,34.15
2022-08-04T17:28:09.209Z,34.80
2022-08-04T17:29:55.349Z,34.62
2022-08-04T17:32:25.397Z,35.22
2022-08-04T17:34:57.467Z,36.07
2022-08-04T17:37:39.672Z,37.28
2022-08-04T17:44:04.256Z,37.61
2022-08-04T17:46:31.050Z,36.95
2022-08-04T17:49:06.204Z,37.10
2022-08-04T17:52:05.732Z,37.15
2022-08-04T17:57:23.133Z,38.08
2022-08-04T17:59:56.148Z,36.87
2022-08-04T18:02:33.562Z,37.78
2022-08-04T18:05:11.310Z,39.27
2022-08-04T18:08:40.213Z,38.53
2022-08-04T18:10:51.978Z,38.99
2022-08-04T18:13:23.239Z,40.25
2022-08-04T18:15:51.572Z,40.80
2022-08-04T18:18:23.249Z,39.23
2022-08-04T18:20:53.363Z,36.81
2022-08-04T18:23:31.838Z,36.95
2022-08-04T18:26:02.098Z,37.56
2022-08-04T18:28:33.778Z,38.54
2022-08-04T18:31:02.932Z,38.14
2022-08-04T18:33:40.205Z,36.99
2022-08-04T18:36:33.708Z,37.12
2022-08-04T18:39:12.925Z,37.20
2022-08-04T18:41:51.621Z,37.51
2022-08-04T18:44:31.973Z,36.83
2022-08-04T18:47:22.208Z,33.79
2022-08-04T18:51:00.733Z,34.90
2022-08-04T18:52:41.904Z,34.98
2022-08-04T18:55:55.475Z,36.57
2022-08-04T19:00:53.554Z,37.69
2022-08-04T19:03:22.950Z,37.03
2022-08-04T19:05:51.511Z,37.79
2022-08-04T19:08:34.182Z,39.19
2022-08-04T19:11:16.718Z,39.41
2022-08-04T19:13:54.512Z,39.77
2022-08-04T19:16:26.763Z,37.17
2022-08-04T19:18:55.513Z,39.17
2022-08-04T19:21:59.705Z,39.20
2022-08-04T19:24:31.054Z,38.80
2022-08-04T19:27:08.442Z,38.42
2022-08-04T19:29:43.123Z,38.73
2022-08-04T19:32:15.212Z,38.30
2022-08-04T19:34:47.243Z,38.52
2022-08-04T19:37:57.492Z,38.70
2022-08-04T19:40:10.394Z,38.67
2022-08-04T19:42:40.369Z,38.71
2022-08-04T19:45:09.846Z,38.70
2022-08-04T19:48:16.096Z,38.44
2022-08-04T19:50:32.767Z,38.46
2022-08-04T19:53:01.587Z,39.03
2022-08-04T19:55:37.627Z,39.24
2022-08-04T19:58:08.828Z,39.54
2022-08-04T20:00:38.345Z,40.13
2022-08-04T20:03:11.331Z,40.33
2022-08-04T20:05:53.797Z,40.13
2022-08-04T20:08:24.907Z,39.86
2022-08-04T20:10:54.871Z,40.30
2022-08-04T20:13:25.514Z,39.77
2022-08-04T20:15:59.380Z,40.09
2022-08-04T20:18:35.580Z,40.33
2022-08-04T20:23:55.844Z,41.08
2022-08-04T20:26:25.460Z,41.31
2022-08-04T20:28:54.744Z,40.78
2022-08-04T20:31:23.986Z,40.26
2022-08-04T20:33:59.868Z,40.02
2022-08-04T20:36:28.049Z,39.93
2022-08-04T20:38:56.299Z,39.77
2022-08-04T20:41:25.902Z,40.13
2022-08-04T20:44:04.806Z,40.24
2022-08-04T20:46:38.639Z,40.19
2022-08-04T20:49:06.836Z,40.66
2022-08-04T20:51:40.068Z,40.26
2022-08-04T20:54:16.320Z,40.51
2022-08-04T20:56:51.256Z,40.38
2022-08-04T20:59:19.724Z,40.61
2022-08-04T21:01:49.646Z,40.76
2022-08-04T21:04:35.779Z,41.54
2022-08-04T21:07:06.242Z,41.83
2022-08-04T21:09:37.872Z,42.73
2022-08-04T21:12:28.586Z,42.69
2022-08-04T21:15:14.005Z,42.76
2022-08-04T21:17:56.624Z,42.63
2022-08-04T21:20:27.623Z,42.75
2022-08-04T21:22:59.526Z,42.11
2022-08-04T21:25:30.012Z,42.42
2022-08-04T21:28:03.997Z,42.71
2022-08-04T21:30:52.222Z,43.00
2022-08-04T21:33:20.929Z,41.99
2022-08-04T21:35:54.101Z,42.72
2022-08-04T21:38:25.189Z,42.31
2022-08-04T21:41:01.553Z,43.05
2022-08-04T21:43:42.762Z,42.64
2022-08-04T21:46:11.844Z,42.49
2022-08-04T21:48:42.335Z,42.66
2022-08-04T21:51:56.832Z,42.81
2022-08-04T21:54:04.752Z,42.64
2022-08-04T21:56:33.721Z,43.08
2022-08-04T21:59:08.813Z,43.03
2022-08-04T22:01:52.390Z,43.28
2022-08-04T22:04:23.127Z,43.16
2022-08-04T22:06:51.920Z,44.20
2022-08-04T22:09:22.320Z,44.78
2022-08-04T22:11:51.936Z,45.91
2022-08-04T22:14:29.140Z,46.68
2022-08-04T22:17:02.424Z,46.79
2022-08-04T22:19:50.134Z,46.96
2022-08-04T22:22:24.496Z,47.35
2022-08-04T22:24:53.166Z,48.11
2022-08-04T22:27:35.435Z,47.65
2022-08-04T22:30:13.424Z,47.44
2022-08-04T22:32:47.166Z,47.70
2022-08-04T22:35:38.526Z,48.03
2022-08-04T22:38:06.086Z,48.25
2022-08-04T22:40:35.858Z,48.75
2022-08-04T22:43:03.897Z,49.13
2022-08-04T22:45:53.219Z,49.00
2022-08-04T22:48:22.550Z,49.17
2022-08-04T22:50:51.498Z,49.30
2022-08-04T22:53:19.532Z,49.75
2022-08-04T22:56:06.558Z,49.86
2022-08-04T22:58:40.230Z,49.72
2022-08-04T23:01:10.650Z,49.64
2022-08-04T23:03:39.125Z,49.83
2022-08-04T23:06:10.795Z,50.56
2022-08-04T23:08:43.034Z,50.56
2022-08-04T23:11:14.888Z,50.77
2022-08-04T23:13:43.270Z,50.90
2022-08-04T23:16:13.883Z,50.35
2022-08-04T23:18:45.208Z,50.47
2022-08-04T23:21:17.623Z,51.57
2022-08-04T23:24:00.954Z,51.99
2022-08-04T23:26:31.573Z,51.55
2022-08-04T23:29:03.552Z,51.64
2022-08-04T23:31:40.889Z,51.58
2022-08-04T23:34:21.127Z,51.75
2022-08-04T23:36:50.183Z,51.96
2022-08-04T23:39:18.519Z,51.68
2022-08-04T23:41:54.643Z,51.89
2022-08-04T23:44:26.723Z,52.73
2022-08-04T23:47:00.623Z,52.91
2022-08-04T23:49:44.589Z,53.78
2022-08-04T23:52:23.069Z,54.49
2022-08-04T23:54:56.886Z,54.68
2022-08-04T23:57:30.862Z,54.33
